Tunis, Tunisia
Current Conditions -  °F | °C
As of 9:30 AM on Friday 28 Nov 2014 (Local Time) from DTTA Reporting Station
Scattered Clouds Scattered Clouds  
Wind Chill: 19°   Ceiling: Unl
Heat Index: 19°   Visibility: 6mi
Dew Point: 13°   Wind: 2mph
Humidity: 68%   Direction: NA
Pressure: 29.71"   Gusts: NA
Location:  36.84°N, 10.22°E
Report Text: DTTA 280830Z VRB02KT 9999 SCT026 19/13 Q1006 NOSIG
Loading
Personal Weather Stations






























Interactive Weather Map New forecast layout! Learn more

10-Day Weather Forecast

Advertisements
Track Severe Weather on mobile